createdAt,value
2022-10-26T00:01:14.179Z,100284.87
2022-10-26T00:03:42.890Z,100281.25
2022-10-26T00:06:10.943Z,100290.63
2022-10-26T00:08:38.342Z,100287.06
2022-10-26T00:11:06.167Z,100286.47
2022-10-26T00:13:33.662Z,100283.88
2022-10-26T00:18:33.477Z,100289.66
2022-10-26T00:21:07.267Z,100296.31
2022-10-26T00:23:34.905Z,100290.72
2022-10-26T00:26:02.216Z,100293.84
2022-10-26T00:28:29.598Z,100298.66
2022-10-26T00:31:04.704Z,100294.47
2022-10-26T00:33:32.452Z,100291.31
2022-10-26T00:36:00.106Z,100289.09
2022-10-26T00:38:27.462Z,100288.13
2022-10-26T00:40:54.820Z,100288.88
2022-10-26T00:43:22.310Z,100290.31
2022-10-26T00:45:49.914Z,100284.37
2022-10-26T00:48:26.238Z,100278.81
2022-10-26T00:50:53.667Z,100282.31
2022-10-26T00:53:21.010Z,100280.47
2022-10-26T00:55:49.458Z,100276.91
2022-10-26T00:58:17.091Z,100280.87
2022-10-26T01:00:44.478Z,100278.88
2022-10-26T01:03:11.887Z,100271.81
2022-10-26T01:05:41.662Z,100273.69
2022-10-26T01:08:08.991Z,100274.00
2022-10-26T01:10:36.680Z,100276.06
2022-10-26T01:13:04.284Z,100273.19
2022-10-26T01:16:04.627Z,100271.13
2022-10-26T01:18:44.846Z,100274.56
2022-10-26T01:21:27.193Z,100277.53
2022-10-26T01:24:09.866Z,100281.66
2022-10-26T01:26:42.443Z,100275.81
2022-10-26T01:29:25.088Z,100274.37
2022-10-26T01:32:23.518Z,100271.34
2022-10-26T01:35:07.749Z,100284.47
2022-10-26T01:37:37.626Z,100278.97
2022-10-26T01:40:18.540Z,100277.97
2022-10-26T01:42:49.260Z,100270.59
2022-10-26T01:45:16.938Z,100277.03
2022-10-26T01:47:44.401Z,100272.06
2022-10-26T01:50:11.798Z,100267.78
2022-10-26T01:52:40.066Z,100264.31
2022-10-26T01:55:39.277Z,100267.87
2022-10-26T01:58:42.183Z,100264.47
2022-10-26T02:01:47.092Z,100268.75
2022-10-26T02:04:27.935Z,100266.09
2022-10-26T02:07:20.030Z,100261.91
2022-10-26T02:10:16.856Z,100257.34
2022-10-26T02:13:37.914Z,100261.03
2022-10-26T02:16:14.323Z,100261.72
2022-10-26T02:18:51.899Z,100253.31
2022-10-26T02:21:25.284Z,100255.25
2022-10-26T02:23:52.636Z,100251.81
2022-10-26T02:26:21.118Z,100254.63
2022-10-26T02:28:49.893Z,100256.25
2022-10-26T02:31:17.301Z,100259.19
2022-10-26T02:33:46.996Z,100267.13
2022-10-26T02:36:16.851Z,100259.47
2022-10-26T02:38:44.201Z,100263.94
2022-10-26T02:41:12.109Z,100273.81
2022-10-26T02:43:43.618Z,100267.59
2022-10-26T02:46:13.049Z,100272.16
2022-10-26T02:48:40.639Z,100276.06
2022-10-26T02:51:20.385Z,100280.03
2022-10-26T02:54:12.253Z,100277.63
2022-10-26T02:56:47.268Z,100286.56
2022-10-26T02:59:14.932Z,100282.03
2022-10-26T03:01:42.429Z,100287.53
2022-10-26T03:04:09.788Z,100288.37
2022-10-26T03:06:37.410Z,100291.72
2022-10-26T03:09:04.716Z,100283.22
2022-10-26T03:11:32.020Z,100290.69
2022-10-26T03:13:59.624Z,100281.19
2022-10-26T03:16:27.223Z,100281.81
2022-10-26T03:18:54.666Z,100293.03
2022-10-26T03:21:22.269Z,100295.31
2022-10-26T03:23:50.605Z,100293.34
2022-10-26T03:26:17.923Z,100290.66
2022-10-26T03:28:45.534Z,100301.00
2022-10-26T03:31:12.878Z,100288.22
2022-10-26T03:33:40.227Z,100301.53
2022-10-26T03:36:08.313Z,100301.84
2022-10-26T03:38:35.728Z,100303.53
2022-10-26T03:41:03.031Z,100302.69
2022-10-26T03:43:30.706Z,100307.19
2022-10-26T03:45:58.008Z,100305.34
2022-10-26T03:48:25.371Z,100306.81
2022-10-26T03:50:52.969Z,100313.25
2022-10-26T03:53:20.262Z,100303.00
2022-10-26T03:55:47.597Z,100306.88
2022-10-26T03:58:15.310Z,100308.81
2022-10-26T04:00:42.662Z,100309.19
2022-10-26T04:03:10.277Z,100309.84
2022-10-26T04:05:37.605Z,100318.16
2022-10-26T04:08:05.130Z,100322.13
2022-10-26T04:10:32.703Z,100318.78
2022-10-26T04:13:01.257Z,100318.16
2022-10-26T04:15:28.699Z,100310.31
2022-10-26T04:17:57.497Z,100316.31
2022-10-26T04:20:25.207Z,100316.66
2022-10-26T04:23:05.418Z,100312.84
2022-10-26T04:25:33.681Z,100312.47
2022-10-26T04:28:02.159Z,100314.50
2022-10-26T04:30:29.614Z,100319.81
2022-10-26T04:32:57.204Z,100310.81
2022-10-26T04:35:24.545Z,100312.78
2022-10-26T04:37:52.183Z,100307.28
2022-10-26T04:40:19.790Z,100311.13
2022-10-26T04:42:47.769Z,100303.97
2022-10-26T04:45:16.167Z,100295.22
2022-10-26T04:47:43.820Z,100295.59
2022-10-26T04:50:11.810Z,100300.47
2022-10-26T04:52:39.201Z,100304.25
2022-10-26T04:55:07.158Z,100304.09
2022-10-26T04:57:34.493Z,100300.06
2022-10-26T05:00:02.224Z,100301.66
2022-10-26T05:02:30.201Z,100299.44
2022-10-26T05:04:57.647Z,100288.97
2022-10-26T05:07:24.970Z,100293.41
2022-10-26T05:09:52.692Z,100292.59
2022-10-26T05:12:20.106Z,100289.19
2022-10-26T05:14:47.398Z,100286.38
2022-10-26T05:17:15.017Z,100287.31
2022-10-26T05:19:42.353Z,100294.81
2022-10-26T05:22:09.712Z,100297.66
2022-10-26T05:24:37.337Z,100306.88
2022-10-26T05:27:04.670Z,100310.47
2022-10-26T05:29:32.002Z,100315.06
2022-10-26T05:31:59.591Z,100311.84
2022-10-26T05:34:26.934Z,100323.56
2022-10-26T05:36:54.653Z,100317.34
2022-10-26T05:39:22.418Z,100320.91
2022-10-26T05:41:49.889Z,100323.69
2022-10-26T05:44:17.250Z,100323.03
2022-10-26T05:46:47.025Z,100327.09
2022-10-26T05:49:15.766Z,100332.09
2022-10-26T05:51:43.080Z,100331.00
2022-10-26T05:54:13.728Z,100327.84
2022-10-26T05:56:41.735Z,100332.19
2022-10-26T05:59:14.072Z,100333.66
2022-10-26T06:02:03.080Z,100339.19
2022-10-26T06:04:43.510Z,100338.09
2022-10-26T06:07:12.602Z,100336.59
2022-10-26T06:09:40.602Z,100336.72
2022-10-26T06:12:09.089Z,100339.56
2022-10-26T06:14:36.865Z,100352.84
2022-10-26T06:17:41.996Z,100352.91
2022-10-26T06:20:27.412Z,100359.53
2022-10-26T06:23:14.140Z,100364.47
2022-10-26T06:25:54.940Z,100358.84
2022-10-26T06:28:33.788Z,100361.19
2022-10-26T06:31:01.168Z,100364.62
2022-10-26T06:33:30.108Z,100367.66
2022-10-26T06:35:57.767Z,100373.66
2022-10-26T06:38:25.077Z,100372.75
2022-10-26T06:40:53.189Z,100367.09
2022-10-26T06:43:24.518Z,100364.50
2022-10-26T06:46:17.158Z,100369.22
2022-10-26T06:48:50.114Z,100365.13
2022-10-26T06:51:18.083Z,100370.91
2022-10-26T06:53:58.575Z,100371.41
2022-10-26T06:56:32.760Z,100373.66
2022-10-26T06:59:07.031Z,100378.16
2022-10-26T07:01:34.723Z,100379.44
2022-10-26T07:04:02.425Z,100376.00
2022-10-26T07:06:30.056Z,100377.34
2022-10-26T07:09:00.395Z,100376.41
2022-10-26T07:11:28.293Z,100376.31
2022-10-26T07:13:55.797Z,100375.25
2022-10-26T07:16:23.611Z,100380.03
2022-10-26T07:18:51.599Z,100371.03
2022-10-26T07:21:19.462Z,100377.13
2022-10-26T07:23:47.174Z,100380.88
2022-10-26T07:26:18.185Z,100384.41
2022-10-26T07:28:49.508Z,100387.38
2022-10-26T07:31:17.536Z,100392.84
2022-10-26T07:33:47.775Z,100395.81
2022-10-26T07:36:15.179Z,100390.25
2022-10-26T07:38:42.880Z,100390.09
2022-10-26T07:41:10.208Z,100392.59
2022-10-26T07:43:37.635Z,100390.28
2022-10-26T07:46:05.305Z,100396.03
2022-10-26T07:48:32.744Z,100385.50
2022-10-26T07:51:02.977Z,100386.37
2022-10-26T07:53:30.909Z,100385.41
2022-10-26T07:55:58.707Z,100375.56
2022-10-26T07:58:27.285Z,100377.00
2022-10-26T08:00:55.123Z,100376.66
2022-10-26T08:03:22.830Z,100376.78
2022-10-26T08:05:55.867Z,100374.00
2022-10-26T08:08:23.535Z,100380.09
2022-10-26T08:10:52.267Z,100373.34
2022-10-26T08:13:19.596Z,100380.50
2022-10-26T08:15:47.774Z,100386.69
2022-10-26T08:18:15.181Z,100378.53
2022-10-26T08:20:42.498Z,100385.22
2022-10-26T08:23:10.206Z,100391.16
2022-10-26T08:25:37.576Z,100387.31
2022-10-26T08:28:05.203Z,100387.09
2022-10-26T08:30:32.951Z,100380.16
2022-10-26T08:33:04.459Z,100384.84
2022-10-26T08:35:32.275Z,100379.31
2022-10-26T08:37:59.918Z,100384.41
2022-10-26T08:40:29.026Z,100380.91
2022-10-26T08:43:00.191Z,100383.63
2022-10-26T08:45:52.337Z,100389.44
2022-10-26T08:48:24.706Z,100390.16
2022-10-26T08:50:55.751Z,100399.72
2022-10-26T08:53:38.211Z,100400.00
2022-10-26T08:56:17.068Z,100396.41
2022-10-26T08:58:50.071Z,100397.13
2022-10-26T09:01:17.843Z,100402.72
2022-10-26T09:03:45.294Z,100394.47
2022-10-26T09:06:34.024Z,100392.22
2022-10-26T09:09:09.910Z,100393.03
2022-10-26T09:12:11.302Z,100389.31
2022-10-26T09:14:56.394Z,100393.44
2022-10-26T09:17:39.523Z,100391.56
2022-10-26T09:20:33.045Z,100398.19
2022-10-26T09:23:21.738Z,100398.19
2022-10-26T09:25:57.525Z,100404.00
2022-10-26T09:28:24.848Z,100410.00
2022-10-26T09:30:52.443Z,100419.25
2022-10-26T09:33:24.149Z,100417.41
2022-10-26T09:36:02.846Z,100414.31
2022-10-26T09:38:35.982Z,100423.28
2022-10-26T09:41:25.146Z,100423.34
2022-10-26T09:43:58.017Z,100415.94
2022-10-26T09:46:50.288Z,100415.69
2022-10-26T09:49:17.994Z,100422.47
2022-10-26T09:51:46.338Z,100423.59
2022-10-26T09:54:17.863Z,100426.28
2022-10-26T09:56:46.336Z,100425.66
2022-10-26T09:59:14.068Z,100423.66
2022-10-26T10:01:42.496Z,100425.97
2022-10-26T10:04:20.031Z,100440.19
2022-10-26T10:06:48.626Z,100437.28
2022-10-26T10:09:17.994Z,100431.13
2022-10-26T10:11:57.892Z,100425.34
2022-10-26T10:14:29.358Z,100431.16
2022-10-26T10:17:01.515Z,100430.75
2022-10-26T10:19:33.538Z,100435.69
2022-10-26T10:22:02.181Z,100437.66
2022-10-26T10:24:30.785Z,100436.63
2022-10-26T10:27:19.542Z,100429.28
2022-10-26T10:29:51.214Z,100431.41
2022-10-26T10:32:23.089Z,100420.37
2022-10-26T10:34:51.540Z,100416.00
2022-10-26T10:37:38.731Z,100422.66
2022-10-26T10:40:09.771Z,100417.75
2022-10-26T10:42:38.586Z,100423.16
2022-10-26T10:45:06.793Z,100424.19
2022-10-26T10:47:35.325Z,100421.66
2022-10-26T10:50:05.214Z,100422.66
2022-10-26T10:52:34.384Z,100417.31
2022-10-26T10:55:13.849Z,100407.59
2022-10-26T10:57:55.134Z,100414.69
2022-10-26T11:00:22.674Z,100412.03
2022-10-26T11:03:14.220Z,100406.34
2022-10-26T11:06:13.776Z,100404.81
2022-10-26T11:08:50.571Z,100396.19
2022-10-26T11:11:23.290Z,100399.13
2022-10-26T11:13:56.266Z,100400.03
2022-10-26T11:16:31.594Z,100393.91
2022-10-26T11:19:10.886Z,100390.09
2022-10-26T11:21:38.228Z,100388.28
2022-10-26T11:24:17.759Z,100392.69
2022-10-26T11:27:20.492Z,100390.81
2022-10-26T11:30:21.146Z,100390.13
2022-10-26T11:33:01.612Z,100384.88
2022-10-26T11:35:45.843Z,100388.09
2022-10-26T11:38:38.811Z,100383.19
2022-10-26T11:41:41.347Z,100380.94
2022-10-26T11:44:15.361Z,100377.91
2022-10-26T11:46:56.016Z,100376.28
2022-10-26T11:49:40.834Z,100371.44
2022-10-26T11:52:30.098Z,100376.56
2022-10-26T11:55:00.516Z,100369.44
2022-10-26T11:57:29.055Z,100374.91
2022-10-26T12:00:03.331Z,100372.87
2022-10-26T12:02:32.634Z,100373.13
2022-10-26T12:05:06.282Z,100367.34
2022-10-26T12:07:38.229Z,100376.22
2022-10-26T12:10:22.985Z,100374.75
2022-10-26T12:13:22.354Z,100362.37
2022-10-26T12:16:21.992Z,100371.78
2022-10-26T12:18:56.666Z,100369.69
2022-10-26T12:21:26.500Z,100379.81
2022-10-26T12:23:55.797Z,100374.50
2022-10-26T12:26:22.986Z,100374.12
2022-10-26T12:29:02.756Z,100376.66
2022-10-26T12:31:33.317Z,100374.78
2022-10-26T12:34:01.325Z,100371.03
2022-10-26T12:36:47.041Z,100364.41
2022-10-26T12:39:34.143Z,100367.69
2022-10-26T12:42:04.451Z,100370.06
2022-10-26T12:44:41.651Z,100366.59
2022-10-26T12:47:09.793Z,100368.28
2022-10-26T12:50:02.174Z,100361.81
2022-10-26T12:52:31.846Z,100361.16
2022-10-26T12:55:20.279Z,100361.47
2022-10-26T12:57:50.575Z,100363.81
2022-10-26T13:00:21.846Z,100354.03
2022-10-26T13:03:01.994Z,100371.06
2022-10-26T13:05:54.557Z,100360.62
2022-10-26T13:08:21.968Z,100361.94
2022-10-26T13:11:07.078Z,100359.75
2022-10-26T13:13:34.410Z,100361.78
2022-10-26T13:16:02.047Z,100364.00
2022-10-26T13:18:29.426Z,100354.03
2022-10-26T13:21:12.860Z,100360.88
2022-10-26T13:23:54.132Z,100357.50
2022-10-26T13:26:24.138Z,100356.13
2022-10-26T13:28:57.141Z,100360.97
2022-10-26T13:31:24.401Z,100357.84
2022-10-26T13:33:52.481Z,100360.78
2022-10-26T13:36:29.409Z,100370.25
2022-10-26T13:38:58.412Z,100373.88
2022-10-26T13:41:38.979Z,100369.44
2022-10-26T13:44:07.156Z,100366.47
2022-10-26T13:46:36.079Z,100366.66
2022-10-26T13:49:09.170Z,100372.91
2022-10-26T13:51:42.932Z,100370.00
2022-10-26T13:54:24.078Z,100373.69
2022-10-26T13:57:19.539Z,100377.03
2022-10-26T13:59:46.956Z,100383.28
2022-10-26T14:02:18.374Z,100379.09
2022-10-26T14:04:47.818Z,100375.97
2022-10-26T14:07:17.840Z,100376.22
2022-10-26T14:09:50.269Z,100381.62
2022-10-26T14:12:17.863Z,100383.50
2022-10-26T14:14:45.216Z,100375.97
2022-10-26T14:17:23.129Z,100377.62
2022-10-26T14:19:50.778Z,100385.97
2022-10-26T14:22:23.387Z,100378.75
2022-10-26T14:24:53.097Z,100374.56
2022-10-26T14:27:22.476Z,100378.03
2022-10-26T14:30:16.740Z,100380.97
2022-10-26T14:32:38.803Z,100378.91
2022-10-26T14:35:06.218Z,100383.03
2022-10-26T14:37:50.393Z,100381.38
2022-10-26T14:40:19.936Z,100378.50
2022-10-26T14:42:50.670Z,100383.28
2022-10-26T14:45:47.492Z,100392.56
2022-10-26T14:48:28.489Z,100392.81
2022-10-26T14:51:05.691Z,100396.00
2022-10-26T14:53:35.831Z,100394.97
2022-10-26T14:56:04.167Z,100402.00
2022-10-26T14:58:31.712Z,100404.94
2022-10-26T15:01:36.040Z,100402.28
2022-10-26T15:04:07.175Z,100398.72
2022-10-26T15:06:40.206Z,100396.50
2022-10-26T15:09:41.040Z,100393.81
2022-10-26T15:12:20.950Z,100396.53
2022-10-26T15:14:49.175Z,100397.16
2022-10-26T15:17:27.949Z,100399.03
2022-10-26T15:19:55.566Z,100393.47
2022-10-26T15:22:30.908Z,100404.84
2022-10-26T15:25:02.720Z,100401.12
2022-10-26T15:27:30.046Z,100399.69
2022-10-26T15:30:19.316Z,100404.22
2022-10-26T15:32:47.110Z,100413.94
2022-10-26T15:35:15.727Z,100415.81
2022-10-26T15:37:43.219Z,100418.31
2022-10-26T15:40:11.665Z,100414.16
2022-10-26T15:42:39.873Z,100415.19
2022-10-26T15:45:23.331Z,100420.75
2022-10-26T15:47:55.571Z,100422.03
2022-10-26T15:50:24.287Z,100420.78
2022-10-26T15:52:56.916Z,100425.97
2022-10-26T15:55:24.277Z,100418.50
2022-10-26T15:57:52.331Z,100422.84
2022-10-26T16:00:20.033Z,100426.75
2022-10-26T16:02:47.677Z,100420.97
2022-10-26T16:05:16.227Z,100428.22
2022-10-26T16:07:44.576Z,100426.78
2022-10-26T16:10:18.728Z,100430.28
2022-10-26T16:12:46.189Z,100432.78
2022-10-26T16:15:24.408Z,100435.25
2022-10-26T16:17:51.984Z,100428.84
2022-10-26T16:20:24.974Z,100438.16
2022-10-26T16:22:53.115Z,100440.84
2022-10-26T16:25:24.734Z,100440.63
2022-10-26T16:27:52.648Z,100441.22
2022-10-26T16:30:20.152Z,100452.81
2022-10-26T16:32:48.278Z,100453.25
2022-10-26T16:35:16.263Z,100449.28
2022-10-26T16:37:43.681Z,100462.88
2022-10-26T16:40:11.688Z,100461.69
2022-10-26T16:42:43.751Z,100464.59
2022-10-26T16:45:12.137Z,100464.37
2022-10-26T16:47:40.038Z,100459.62
2022-10-26T16:50:08.197Z,100460.87
2022-10-26T16:52:36.008Z,100473.47
2022-10-26T16:55:03.906Z,100469.53
2022-10-26T16:57:31.406Z,100464.97
2022-10-26T16:59:59.174Z,100474.06
2022-10-26T17:02:26.659Z,100476.34
2022-10-26T17:04:54.082Z,100466.38
2022-10-26T17:07:21.673Z,100474.69
2022-10-26T17:09:49.047Z,100468.69
2022-10-26T17:12:16.445Z,100474.87
2022-10-26T17:14:44.045Z,100488.91
2022-10-26T17:17:11.377Z,100487.69
2022-10-26T17:19:38.758Z,100491.22
2022-10-26T17:22:08.049Z,100500.09
2022-10-26T17:24:36.360Z,100495.50
2022-10-26T17:27:03.734Z,100501.47
2022-10-26T17:29:31.350Z,100499.00
2022-10-26T17:31:58.632Z,100501.87
2022-10-26T17:34:25.958Z,100506.72
2022-10-26T17:36:53.548Z,100512.84
2022-10-26T17:39:20.864Z,100510.34
2022-10-26T17:41:48.250Z,100514.91
2022-10-26T17:44:15.828Z,100513.62
2022-10-26T17:46:43.160Z,100516.09
2022-10-26T17:49:10.589Z,100523.97
2022-10-26T17:51:38.175Z,100528.72
2022-10-26T17:54:05.548Z,100531.44
2022-10-26T17:56:33.224Z,100532.66
2022-10-26T17:59:02.379Z,100535.37
2022-10-26T18:01:30.258Z,100538.84
2022-10-26T18:03:58.072Z,100536.28
2022-10-26T18:06:25.402Z,100531.91
2022-10-26T18:08:52.802Z,100532.94
2022-10-26T18:11:26.110Z,100537.81
2022-10-26T18:13:54.915Z,100541.72
2022-10-26T18:16:23.059Z,100538.00
2022-10-26T18:19:00.299Z,100532.37
2022-10-26T18:21:29.385Z,100536.41
2022-10-26T18:23:56.753Z,100530.84
2022-10-26T18:26:26.307Z,100528.78
2022-10-26T18:28:54.398Z,100533.22
2022-10-26T18:31:22.394Z,100527.25
2022-10-26T18:33:49.771Z,100535.03
2022-10-26T18:36:18.480Z,100531.06
2022-10-26T18:38:49.085Z,100536.19
2022-10-26T18:41:17.332Z,100539.81
2022-10-26T18:43:46.071Z,100541.47
2022-10-26T18:46:20.794Z,100544.63
2022-10-26T18:48:52.287Z,100543.25
2022-10-26T18:51:21.408Z,100545.41
2022-10-26T18:53:49.256Z,100545.50
2022-10-26T18:56:20.363Z,100550.72
2022-10-26T18:58:49.523Z,100552.84
2022-10-26T19:01:19.249Z,100552.97
2022-10-26T19:03:46.804Z,100560.88
2022-10-26T19:06:18.298Z,100561.19
2022-10-26T19:08:46.170Z,100577.28
2022-10-26T19:11:19.070Z,100584.19
2022-10-26T19:13:46.785Z,100585.97
2022-10-26T19:16:17.322Z,100600.31
2022-10-26T19:18:49.554Z,100599.97
2022-10-26T19:21:20.384Z,100597.09
2022-10-26T19:23:49.362Z,100602.56
2022-10-26T19:26:18.525Z,100605.59
2022-10-26T19:28:45.886Z,100611.97
2022-10-26T19:31:13.775Z,100620.56
2022-10-26T19:33:41.406Z,100622.72
2022-10-26T19:36:11.045Z,100623.06
2022-10-26T19:38:38.430Z,100621.94
2022-10-26T19:41:10.934Z,100625.94
2022-10-26T19:43:38.414Z,100639.97
2022-10-26T19:46:13.825Z,100631.47
2022-10-26T19:48:41.431Z,100629.16
2022-10-26T19:51:09.084Z,100631.78
2022-10-26T19:53:36.421Z,100644.88
2022-10-26T19:56:03.821Z,100638.03
2022-10-26T19:58:31.533Z,100647.28
2022-10-26T20:00:59.813Z,100651.72
2022-10-26T20:03:28.981Z,100654.84
2022-10-26T20:05:57.006Z,100654.56
2022-10-26T20:08:24.480Z,100664.78
2022-10-26T20:10:56.272Z,100665.16
2022-10-26T20:13:23.622Z,100667.81
2022-10-26T20:15:51.310Z,100657.50
2022-10-26T20:18:19.218Z,100655.78
2022-10-26T20:20:46.629Z,100657.72
2022-10-26T20:23:13.966Z,100665.47
2022-10-26T20:25:48.539Z,100667.63
2022-10-26T20:28:16.592Z,100668.72
2022-10-26T20:30:44.548Z,100666.97
2022-10-26T20:33:11.952Z,100673.06
2022-10-26T20:35:39.373Z,100677.84
2022-10-26T20:38:07.576Z,100676.09
2022-10-26T20:40:35.528Z,100674.06
2022-10-26T20:43:03.077Z,100670.66
2022-10-26T20:45:33.956Z,100679.09
2022-10-26T20:48:01.432Z,100679.59
2022-10-26T20:50:29.694Z,100674.59
2022-10-26T20:53:07.236Z,100678.47
2022-10-26T20:55:51.187Z,100678.78
2022-10-26T20:58:21.864Z,100671.53
2022-10-26T21:01:02.738Z,100681.37
2022-10-26T21:03:30.386Z,100683.16
2022-10-26T21:05:57.697Z,100692.56
2022-10-26T21:08:25.020Z,100694.37
2022-10-26T21:10:52.607Z,100699.31
2022-10-26T21:13:19.949Z,100688.47
2022-10-26T21:15:47.260Z,100694.69
2022-10-26T21:18:14.819Z,100685.78
2022-10-26T21:20:42.163Z,100684.44
2022-10-26T21:23:09.862Z,100681.09
2022-10-26T21:25:37.584Z,100680.50
2022-10-26T21:28:06.788Z,100680.50
2022-10-26T21:30:34.147Z,100677.91
2022-10-26T21:33:01.839Z,100672.47
2022-10-26T21:35:29.162Z,100681.97
2022-10-26T21:37:56.754Z,100685.78
2022-10-26T21:40:24.339Z,100683.12
2022-10-26T21:42:52.086Z,100684.53
2022-10-26T21:45:19.725Z,100687.09
2022-10-26T21:47:51.452Z,100676.22
2022-10-26T21:50:19.361Z,100677.56
2022-10-26T21:52:46.953Z,100688.66
2022-10-26T21:55:15.148Z,100688.13
2022-10-26T21:57:42.531Z,100692.88
2022-10-26T22:00:10.578Z,100684.84
2022-10-26T22:02:40.511Z,100682.25
2022-10-26T22:05:08.149Z,100685.28
2022-10-26T22:07:35.465Z,100677.97
2022-10-26T22:10:10.993Z,100673.00
2022-10-26T22:12:39.041Z,100672.88
2022-10-26T22:15:06.844Z,100674.78
2022-10-26T22:17:38.132Z,100686.47
2022-10-26T22:20:07.559Z,100683.12
2022-10-26T22:22:34.893Z,100683.91
2022-10-26T22:25:02.236Z,100685.34
2022-10-26T22:27:29.856Z,100689.41
2022-10-26T22:29:57.201Z,100690.94
2022-10-26T22:32:24.541Z,100695.09
2022-10-26T22:35:04.750Z,100695.97
2022-10-26T22:37:38.026Z,100683.91
2022-10-26T22:40:06.070Z,100694.25
2022-10-26T22:42:33.377Z,100701.87
2022-10-26T22:45:00.693Z,100701.63
2022-10-26T22:47:28.355Z,100697.22
2022-10-26T22:49:55.685Z,100705.56
2022-10-26T22:52:23.075Z,100712.44
2022-10-26T22:54:50.647Z,100706.06
2022-10-26T22:57:17.942Z,100715.31
2022-10-26T22:59:45.346Z,100718.06
2022-10-26T23:02:13.071Z,100711.53
2022-10-26T23:04:40.635Z,100720.00
2022-10-26T23:07:07.986Z,100715.66
2022-10-26T23:09:35.573Z,100714.00
2022-10-26T23:12:02.876Z,100717.12
2022-10-26T23:14:30.186Z,100714.66
2022-10-26T23:16:57.772Z,100719.75
2022-10-26T23:19:25.088Z,100717.72
2022-10-26T23:21:52.516Z,100724.13
2022-10-26T23:24:20.089Z,100726.69
2022-10-26T23:26:47.384Z,100728.13
2022-10-26T23:29:14.745Z,100726.47
2022-10-26T23:31:42.365Z,100729.00
2022-10-26T23:34:09.738Z,100735.16
2022-10-26T23:36:37.048Z,100731.28
2022-10-26T23:39:04.631Z,100733.13
2022-10-26T23:41:32.290Z,100730.28
2022-10-26T23:43:59.680Z,100733.47
2022-10-26T23:48:59.595Z,100736.09
2022-10-26T23:51:27.193Z,100730.88
2022-10-26T23:53:54.538Z,100726.28
2022-10-26T23:56:21.874Z,100733.41
2022-10-26T23:58:50.402Z,100736.69
